sensor_id;sensor_type;location;lat;lon;timestamp;pressure;altitude;pressure_sealevel;temperature;humidity
74573;BME280;63071;51.526;-0.134;2022-09-09T00:00:05;99808.16;;;26.09;45.25
74573;BME280;63071;51.526;-0.134;2022-09-09T00:02:30;99816.53;;;26.11;45.41
74573;BME280;63071;51.526;-0.134;2022-09-09T00:05:15;99815.03;;;26.10;45.45
74573;BME280;63071;51.526;-0.134;2022-09-09T00:07:51;99800.91;;;26.10;44.84
74573;BME280;63071;51.526;-0.134;2022-09-09T00:10:20;99803.94;;;26.12;45.42
74573;BME280;63071;51.526;-0.134;2022-09-09T00:15:37;99799.72;;;26.11;44.75
74573;BME280;63071;51.526;-0.134;2022-09-09T00:18:20;99800.47;;;26.11;45.06
74573;BME280;63071;51.526;-0.134;2022-09-09T00:21:08;99797.41;;;26.13;45.12
74573;BME280;63071;51.526;-0.134;2022-09-09T00:23:45;99786.41;;;26.07;44.48
74573;BME280;63071;51.526;-0.134;2022-09-09T00:31:31;99799.66;;;26.14;44.71
74573;BME280;63071;51.526;-0.134;2022-09-09T00:34:12;99803.09;;;26.15;44.38
74573;BME280;63071;51.526;-0.134;2022-09-09T00:36:40;99795.47;;;26.13;44.74
74573;BME280;63071;51.526;-0.134;2022-09-09T00:39:15;99793.22;;;26.12;44.82
74573;BME280;63071;51.526;-0.134;2022-09-09T00:42:05;99793.63;;;26.10;44.91
74573;BME280;63071;51.526;-0.134;2022-09-09T00:44:38;99787.88;;;26.12;44.66
74573;BME280;63071;51.526;-0.134;2022-09-09T00:47:27;99799.66;;;26.14;44.40
74573;BME280;63071;51.526;-0.134;2022-09-09T00:50:05;99785.94;;;26.12;45.52
74573;BME280;63071;51.526;-0.134;2022-09-09T00:57:52;99791.28;;;26.12;44.76
74573;BME280;63071;51.526;-0.134;2022-09-09T01:08:41;99789.00;;;26.11;44.44
74573;BME280;63071;51.526;-0.134;2022-09-09T01:11:20;99785.59;;;26.10;44.97
74573;BME280;63071;51.526;-0.134;2022-09-09T01:13:54;99777.97;;;26.09;45.11
74573;BME280;63071;51.526;-0.134;2022-09-09T01:16:24;99766.44;;;26.12;45.37
74573;BME280;63071;51.526;-0.134;2022-09-09T01:18:53;99777.91;;;26.12;45.44
74573;BME280;63071;51.526;-0.134;2022-09-09T01:26:41;99776.88;;;26.06;45.27
74573;BME280;63071;51.526;-0.134;2022-09-09T01:29:10;99783.31;;;26.09;44.55
74573;BME280;63071;51.526;-0.134;2022-09-09T01:31:40;99768.00;;;26.09;45.53
74573;BME280;63071;51.526;-0.134;2022-09-09T01:34:14;99778.72;;;26.09;45.08
74573;BME280;63071;51.526;-0.134;2022-09-09T01:39:10;99772.19;;;26.10;44.92
74573;BME280;63071;51.526;-0.134;2022-09-09T01:41:35;99762.41;;;26.04;44.56
74573;BME280;63071;51.526;-0.134;2022-09-09T01:44:02;99772.53;;;26.12;45.45
74573;BME280;63071;51.526;-0.134;2022-09-09T01:46:29;99772.94;;;26.11;44.76
74573;BME280;63071;51.526;-0.134;2022-09-09T01:48:55;99765.41;;;26.06;45.41
74573;BME280;63071;51.526;-0.134;2022-09-09T01:51:22;99760.88;;;26.03;44.81
74573;BME280;63071;51.526;-0.134;2022-09-09T01:53:48;99769.53;;;26.10;45.59
74573;BME280;63071;51.526;-0.134;2022-09-09T02:02:11;99773.28;;;26.13;44.68
74573;BME280;63071;51.526;-0.134;2022-09-09T02:04:43;99772.47;;;26.16;44.50
74573;BME280;63071;51.526;-0.134;2022-09-09T02:10:02;99770.53;;;26.16;45.42
74573;BME280;63071;51.526;-0.134;2022-09-09T02:12:31;99780.06;;;26.17;44.92
74573;BME280;63071;51.526;-0.134;2022-09-09T02:15:04;99774.38;;;26.15;44.56
74573;BME280;63071;51.526;-0.134;2022-09-09T02:17:35;99772.38;;;26.19;45.48
74573;BME280;63071;51.526;-0.134;2022-09-09T02:20:09;99768.22;;;26.18;44.83
74573;BME280;63071;51.526;-0.134;2022-09-09T02:22:39;99773.22;;;26.16;44.94
74573;BME280;63071;51.526;-0.134;2022-09-09T02:25:09;99773.22;;;26.16;45.09
74573;BME280;63071;51.526;-0.134;2022-09-09T02:27:36;99777.84;;;26.16;44.94
74573;BME280;63071;51.526;-0.134;2022-09-09T02:30:04;99777.84;;;26.16;44.88
74573;BME280;63071;51.526;-0.134;2022-09-09T02:32:32;99777.84;;;26.16;45.18
74573;BME280;63071;51.526;-0.134;2022-09-09T02:35:07;99773.63;;;26.15;44.72
74573;BME280;63071;51.526;-0.134;2022-09-09T02:37:37;99781.25;;;26.16;45.26
74573;BME280;63071;51.526;-0.134;2022-09-09T02:40:05;99777.84;;;26.16;45.28
74573;BME280;63071;51.526;-0.134;2022-09-09T02:42:32;99775.56;;;26.14;44.82
74573;BME280;63071;51.526;-0.134;2022-09-09T02:44:58;99775.22;;;26.12;45.19
74573;BME280;63071;51.526;-0.134;2022-09-09T02:47:30;99783.94;;;26.16;45.28
74573;BME280;63071;51.526;-0.134;2022-09-09T02:50:34;99783.19;;;26.16;45.43
74573;BME280;63071;51.526;-0.134;2022-09-09T02:53:10;99785.09;;;26.15;44.74
74573;BME280;63071;51.526;-0.134;2022-09-09T02:58:18;99785.94;;;26.12;45.01
74573;BME280;63071;51.526;-0.134;2022-09-09T03:00:47;99793.56;;;26.14;45.08
74573;BME280;63071;51.526;-0.134;2022-09-09T03:03:15;99792.78;;;26.13;44.94
74573;BME280;63071;51.526;-0.134;2022-09-09T03:05:42;99793.13;;;26.15;44.67
74573;BME280;63071;51.526;-0.134;2022-09-09T03:08:08;99796.94;;;26.18;45.00
74573;BME280;63071;51.526;-0.134;2022-09-09T03:10:34;99791.56;;;26.18;44.94
74573;BME280;63071;51.526;-0.134;2022-09-09T03:13:00;99791.63;;;26.14;45.52
74573;BME280;63071;51.526;-0.134;2022-09-09T03:15:26;99799.31;;;26.12;45.34
74573;BME280;63071;51.526;-0.134;2022-09-09T03:17:57;99796.66;;;26.12;45.05
74573;BME280;63071;51.526;-0.134;2022-09-09T03:20:24;99798.13;;;26.13;44.68
74573;BME280;63071;51.526;-0.134;2022-09-09T03:22:52;99792.78;;;26.13;44.65
74573;BME280;63071;51.526;-0.134;2022-09-09T03:25:18;99797.72;;;26.15;45.59
74573;BME280;63071;51.526;-0.134;2022-09-09T03:27:43;99792.03;;;26.13;44.58
74573;BME280;63071;51.526;-0.134;2022-09-09T03:30:09;99797.31;;;26.16;44.96
74573;BME280;63071;51.526;-0.134;2022-09-09T03:32:36;99801.16;;;26.15;45.04
74573;BME280;63071;51.526;-0.134;2022-09-09T03:35:01;99795.06;;;26.15;44.88
74573;BME280;63071;51.526;-0.134;2022-09-09T03:37:27;99798.13;;;26.13;45.27
74573;BME280;63071;51.526;-0.134;2022-09-09T03:39:52;99797.41;;;26.13;45.21
74573;BME280;63071;51.526;-0.134;2022-09-09T03:42:20;99806.94;;;26.14;44.92
74573;BME280;63071;51.526;-0.134;2022-09-09T03:44:47;99814.56;;;26.15;44.67
74573;BME280;63071;51.526;-0.134;2022-09-09T03:47:18;99809.19;;;26.15;44.97
74573;BME280;63071;51.526;-0.134;2022-09-09T03:49:44;99815.31;;;26.16;44.80
74573;BME280;63071;51.526;-0.134;2022-09-09T03:52:09;99812.22;;;26.17;44.94
74573;BME280;63071;51.526;-0.134;2022-09-09T03:54:35;99822.94;;;26.17;45.04
74573;BME280;63071;51.526;-0.134;2022-09-09T03:57:01;99824.84;;;26.17;45.00
74573;BME280;63071;51.526;-0.134;2022-09-09T03:59:27;99809.97;;;26.16;45.35
74573;BME280;63071;51.526;-0.134;2022-09-09T04:01:52;99824.53;;;26.15;45.39
74573;BME280;63071;51.526;-0.134;2022-09-09T04:04:18;99828.03;;;26.12;44.97
74573;BME280;63071;51.526;-0.134;2022-09-09T04:06:45;99828.38;;;26.14;44.66
74573;BME280;63071;51.526;-0.134;2022-09-09T04:09:10;99827.59;;;26.13;45.19
74573;BME280;63071;51.526;-0.134;2022-09-09T04:11:36;99834.47;;;26.14;44.82
74573;BME280;63071;51.526;-0.134;2022-09-09T04:14:02;99834.06;;;26.16;45.09
74573;BME280;63071;51.526;-0.134;2022-09-09T04:16:27;99831.31;;;26.19;45.34
74573;BME280;63071;51.526;-0.134;2022-09-09T04:18:56;99828.28;;;26.17;44.96
74573;BME280;63071;51.526;-0.134;2022-09-09T04:21:21;99838.66;;;26.15;45.06
74573;BME280;63071;51.526;-0.134;2022-09-09T04:23:47;99843.66;;;26.13;44.65
74573;BME280;63071;51.526;-0.134;2022-09-09T04:26:12;99835.22;;;26.15;45.19
74573;BME280;63071;51.526;-0.134;2022-09-09T04:28:37;99832.56;;;26.15;44.96
74573;BME280;63071;51.526;-0.134;2022-09-09T04:31:05;99829.13;;;26.14;45.47
74573;BME280;63071;51.526;-0.134;2022-09-09T04:33:30;99846.34;;;26.13;45.40
74573;BME280;63071;51.526;-0.134;2022-09-09T04:35:57;99838.75;;;26.12;45.55
74573;BME280;63071;51.526;-0.134;2022-09-09T04:38:22;99842.97;;;26.09;44.92
74573;BME280;63071;51.526;-0.134;2022-09-09T04:40:50;99848.00;;;26.07;45.61
74573;BME280;63071;51.526;-0.134;2022-09-09T04:43:17;99850.25;;;26.09;45.55
74573;BME280;63071;51.526;-0.134;2022-09-09T04:45:47;99854.13;;;26.08;44.84
74573;BME280;63071;51.526;-0.134;2022-09-09T04:48:12;99852.59;;;26.07;45.21
74573;BME280;63071;51.526;-0.134;2022-09-09T04:50:38;99854.53;;;26.06;44.94
74573;BME280;63071;51.526;-0.134;2022-09-09T04:53:04;99860.28;;;26.05;44.85
74573;BME280;63071;51.526;-0.134;2022-09-09T04:55:31;99838.19;;;26.01;44.96
74573;BME280;63071;51.526;-0.134;2022-09-09T04:57:57;99851.84;;;26.06;45.20
74573;BME280;63071;51.526;-0.134;2022-09-09T05:00:26;99859.03;;;26.09;44.66
74573;BME280;63071;51.526;-0.134;2022-09-09T05:02:51;99861.31;;;26.11;45.12
74573;BME280;63071;51.526;-0.134;2022-09-09T05:05:17;99859.38;;;26.11;44.66
74573;BME280;63071;51.526;-0.134;2022-09-09T05:07:43;99865.59;;;26.08;45.25
74573;BME280;63071;51.526;-0.134;2022-09-09T05:10:09;99870.19;;;26.08;44.96
74573;BME280;63071;51.526;-0.134;2022-09-09T05:12:35;99869.41;;;26.07;45.55
74573;BME280;63071;51.526;-0.134;2022-09-09T05:15:00;99876.28;;;26.08;45.02
74573;BME280;63071;51.526;-0.134;2022-09-09T05:17:26;99872.09;;;26.07;45.29
74573;BME280;63071;51.526;-0.134;2022-09-09T05:19:51;99876.75;;;26.03;45.26
74573;BME280;63071;51.526;-0.134;2022-09-09T05:22:20;99879.03;;;26.05;45.63
74573;BME280;63071;51.526;-0.134;2022-09-09T05:24:46;99890.50;;;26.05;45.42
74573;BME280;63071;51.526;-0.134;2022-09-09T05:27:12;99887.47;;;26.03;44.84
74573;BME280;63071;51.526;-0.134;2022-09-09T05:29:38;99890.09;;;26.07;45.10
74573;BME280;63071;51.526;-0.134;2022-09-09T05:32:04;99889.34;;;26.06;45.52
74573;BME280;63071;51.526;-0.134;2022-09-09T05:34:29;99889.34;;;26.06;44.83
74573;BME280;63071;51.526;-0.134;2022-09-09T05:36:55;99900.41;;;26.08;44.80
74573;BME280;63071;51.526;-0.134;2022-09-09T05:39:20;99891.28;;;26.06;44.89
74573;BME280;63071;51.526;-0.134;2022-09-09T05:41:46;99902.72;;;26.06;45.50
74573;BME280;63071;51.526;-0.134;2022-09-09T05:44:11;99900.44;;;26.05;45.41
74573;BME280;63071;51.526;-0.134;2022-09-09T05:46:37;99903.97;;;26.02;45.60
74573;BME280;63071;51.526;-0.134;2022-09-09T05:49:03;99908.88;;;26.03;45.36
74573;BME280;63071;51.526;-0.134;2022-09-09T05:51:31;99921.88;;;26.05;44.59
74573;BME280;63071;51.526;-0.134;2022-09-09T05:53:57;99926.47;;;26.04;45.12
74573;BME280;63071;51.526;-0.134;2022-09-09T05:56:28;99929.16;;;26.04;45.37
74573;BME280;63071;51.526;-0.134;2022-09-09T05:58:55;99927.28;;;26.01;45.23
74573;BME280;63071;51.526;-0.134;2022-09-09T06:01:26;99934.97;;;25.99;45.33
74573;BME280;63071;51.526;-0.134;2022-09-09T06:03:52;99930.41;;;26.00;45.07
74573;BME280;63071;51.526;-0.134;2022-09-09T06:06:23;99947.91;;;26.04;45.59
74573;BME280;63071;51.526;-0.134;2022-09-09T06:08:53;99933.47;;;25.98;45.11
74573;BME280;63071;51.526;-0.134;2022-09-09T06:11:25;99942.94;;;26.03;44.92
74573;BME280;63071;51.526;-0.134;2022-09-09T06:13:52;99946.03;;;26.01;44.69
74573;BME280;63071;51.526;-0.134;2022-09-09T06:16:21;99942.66;;;25.97;45.33
74573;BME280;63071;51.526;-0.134;2022-09-09T06:18:49;99942.66;;;25.97;45.21
74573;BME280;63071;51.526;-0.134;2022-09-09T06:21:30;99950.00;;;25.93;45.01
74573;BME280;63071;51.526;-0.134;2022-09-09T06:23:56;99952.25;;;25.94;45.65
74573;BME280;63071;51.526;-0.134;2022-09-09T06:26:24;99953.00;;;25.95;45.28
74573;BME280;63071;51.526;-0.134;2022-09-09T06:28:52;99951.88;;;25.96;45.47
74573;BME280;63071;51.526;-0.134;2022-09-09T06:31:20;99948.50;;;25.92;45.33
74573;BME280;63071;51.526;-0.134;2022-09-09T06:33:48;99946.97;;;25.91;44.94
74573;BME280;63071;51.526;-0.134;2022-09-09T06:36:23;99950.34;;;25.95;45.26
74573;BME280;63071;51.526;-0.134;2022-09-09T06:38:49;99961.47;;;25.93;45.54
74573;BME280;63071;51.526;-0.134;2022-09-09T06:41:18;99962.97;;;25.94;44.96
74573;BME280;63071;51.526;-0.134;2022-09-09T06:43:45;99953.50;;;25.90;45.05
74573;BME280;63071;51.526;-0.134;2022-09-09T06:46:15;99965.31;;;25.89;44.72
74573;BME280;63071;51.526;-0.134;2022-09-09T06:48:42;99971.84;;;25.88;45.70
74573;BME280;63071;51.526;-0.134;2022-09-09T06:51:16;99963.81;;;25.88;45.45
74573;BME280;63071;51.526;-0.134;2022-09-09T06:53:44;99962.66;;;25.89;44.96
74573;BME280;63071;51.526;-0.134;2022-09-09T06:58:37;99971.00;;;25.94;45.48
74573;BME280;63071;51.526;-0.134;2022-09-09T07:01:06;99971.41;;;25.93;45.51
74573;BME280;63071;51.526;-0.134;2022-09-09T07:03:32;99971.41;;;25.93;45.06
74573;BME280;63071;51.526;-0.134;2022-09-09T07:05:59;99976.81;;;25.89;44.52
74573;BME280;63071;51.526;-0.134;2022-09-09T07:08:24;99988.31;;;25.90;45.21
74573;BME280;63071;51.526;-0.134;2022-09-09T07:10:51;99986.81;;;25.85;44.95
74573;BME280;63071;51.526;-0.134;2022-09-09T07:13:27;99993.28;;;25.88;45.12
74573;BME280;63071;51.526;-0.134;2022-09-09T07:15:53;99996.00;;;25.84;44.95
74573;BME280;63071;51.526;-0.134;2022-09-09T07:18:19;100002.44;;;25.87;45.23
74573;BME280;63071;51.526;-0.134;2022-09-09T07:20:55;100004.38;;;25.86;44.90
74573;BME280;63071;51.526;-0.134;2022-09-09T07:23:21;100009.38;;;25.84;45.20
74573;BME280;63071;51.526;-0.134;2022-09-09T07:25:47;100014.78;;;25.81;45.42
74573;BME280;63071;51.526;-0.134;2022-09-09T07:28:13;100013.72;;;25.74;45.38
74573;BME280;63071;51.526;-0.134;2022-09-09T07:30:39;100021.72;;;25.78;45.47
74573;BME280;63071;51.526;-0.134;2022-09-09T07:33:05;100021.34;;;25.76;44.88
74573;BME280;63071;51.526;-0.134;2022-09-09T07:35:31;100032.41;;;25.78;45.67
74573;BME280;63071;51.526;-0.134;2022-09-09T07:37:57;100031.66;;;25.77;44.77
74573;BME280;63071;51.526;-0.134;2022-09-09T07:40:24;100032.78;;;25.80;45.06
74573;BME280;63071;51.526;-0.134;2022-09-09T07:42:50;100038.53;;;25.78;44.51
74573;BME280;63071;51.526;-0.134;2022-09-09T07:45:15;100045.44;;;25.76;45.15
74573;BME280;63071;51.526;-0.134;2022-09-09T07:47:41;100040.84;;;25.76;45.43
74573;BME280;63071;51.526;-0.134;2022-09-09T07:50:08;100051.16;;;25.78;44.58
74573;BME280;63071;51.526;-0.134;2022-09-09T07:52:34;100058.38;;;25.81;44.70
74573;BME280;63071;51.526;-0.134;2022-09-09T07:55:02;100051.13;;;25.82;44.44
74573;BME280;63071;51.526;-0.134;2022-09-09T07:57:28;100053.78;;;25.82;44.80
74573;BME280;63071;51.526;-0.134;2022-09-09T07:59:56;100058.78;;;25.79;44.67
74573;BME280;63071;51.526;-0.134;2022-09-09T08:02:23;100049.22;;;25.78;45.06
74573;BME280;63071;51.526;-0.134;2022-09-09T08:04:49;100058.84;;;25.76;45.07
74573;BME280;63071;51.526;-0.134;2022-09-09T08:07:14;100070.66;;;25.78;44.99
74573;BME280;63071;51.526;-0.134;2022-09-09T08:09:41;100067.63;;;25.76;45.18
74573;BME280;63071;51.526;-0.134;2022-09-09T08:12:07;100069.53;;;25.76;44.44
74573;BME280;63071;51.526;-0.134;2022-09-09T08:14:34;100066.47;;;25.77;44.87
74573;BME280;63071;51.526;-0.134;2022-09-09T08:17:00;100071.75;;;25.81;44.23
74573;BME280;63071;51.526;-0.134;2022-09-09T08:19:26;100063.78;;;25.77;45.04
74573;BME280;63071;51.526;-0.134;2022-09-09T08:21:54;100076.69;;;25.83;45.10
74573;BME280;63071;51.526;-0.134;2022-09-09T08:24:19;100086.25;;;25.84;44.91
74573;BME280;63071;51.526;-0.134;2022-09-09T08:26:47;100085.09;;;25.85;44.84
74573;BME280;63071;51.526;-0.134;2022-09-09T08:29:14;100091.97;;;25.86;44.07
74573;BME280;63071;51.526;-0.134;2022-09-09T08:31:52;100091.22;;;25.85;44.37
74573;BME280;63071;51.526;-0.134;2022-09-09T08:34:20;100095.78;;;25.85;44.43
74573;BME280;63071;51.526;-0.134;2022-09-09T08:36:48;100103.06;;;25.84;44.45
74573;BME280;63071;51.526;-0.134;2022-09-09T08:39:16;100101.97;;;25.82;44.56
74573;BME280;63071;51.526;-0.134;2022-09-09T08:41:54;100103.47;;;25.83;44.01
74573;BME280;63071;51.526;-0.134;2022-09-09T08:47:23;100109.34;;;25.74;44.18
74573;BME280;63071;51.526;-0.134;2022-09-09T08:50:02;100118.13;;;25.74;44.34
74573;BME280;63071;51.526;-0.134;2022-09-09T08:52:37;100122.72;;;25.74;44.10
74573;BME280;63071;51.526;-0.134;2022-09-09T08:55:33;100127.31;;;25.73;43.98
74573;BME280;63071;51.526;-0.134;2022-09-09T08:58:13;100122.75;;;25.70;44.57
74573;BME280;63071;51.526;-0.134;2022-09-09T09:11:26;100144.13;;;25.74;44.29
74573;BME280;63071;51.526;-0.134;2022-09-09T09:14:07;100144.47;;;25.76;44.82
74573;BME280;63071;51.526;-0.134;2022-09-09T09:16:49;100145.25;;;25.76;44.34
74573;BME280;63071;51.526;-0.134;2022-09-09T09:19:17;100157.00;;;25.83;44.10
74573;BME280;63071;51.526;-0.134;2022-09-09T09:21:59;100158.94;;;25.82;44.53
74573;BME280;63071;51.526;-0.134;2022-09-09T09:24:42;100153.19;;;25.84;44.64
74573;BME280;63071;51.526;-0.134;2022-09-09T09:27:21;100160.03;;;25.85;44.51
74573;BME280;63071;51.526;-0.134;2022-09-09T09:29:55;100165.41;;;25.85;44.32
74573;BME280;63071;51.526;-0.134;2022-09-09T09:32:24;100167.72;;;25.83;44.55
74573;BME280;63071;51.526;-0.134;2022-09-09T09:34:55;100177.31;;;25.80;44.73
74573;BME280;63071;51.526;-0.134;2022-09-09T09:37:41;100176.94;;;25.82;44.04
74573;BME280;63071;51.526;-0.134;2022-09-09T09:40:17;100181.09;;;25.83;44.56
74573;BME280;63071;51.526;-0.134;2022-09-09T09:43:00;100182.28;;;25.82;44.57
74573;BME280;63071;51.526;-0.134;2022-09-09T09:45:34;100179.25;;;25.79;44.96
74573;BME280;63071;51.526;-0.134;2022-09-09T09:48:11;100188.78;;;25.81;45.02
74573;BME280;63071;51.526;-0.134;2022-09-09T09:50:50;100181.97;;;25.76;44.92
74573;BME280;63071;51.526;-0.134;2022-09-09T09:53:24;100190.31;;;25.82;43.76
74573;BME280;63071;51.526;-0.134;2022-09-09T09:56:02;100181.88;;;25.83;43.95
74573;BME280;63071;51.526;-0.134;2022-09-09T09:58:35;100197.16;;;25.83;44.26
74573;BME280;63071;51.526;-0.134;2022-09-09T10:01:02;100193.00;;;25.82;44.44
74573;BME280;63071;51.526;-0.134;2022-09-09T10:03:33;100202.63;;;25.75;44.28
74573;BME280;63071;51.526;-0.134;2022-09-09T10:06:04;100191.50;;;25.77;44.58
74573;BME280;63071;51.526;-0.134;2022-09-09T10:08:34;100202.97;;;25.77;44.31
74573;BME280;63071;51.526;-0.134;2022-09-09T10:22:52;100202.88;;;25.85;44.45
74573;BME280;63071;51.526;-0.134;2022-09-09T10:25:49;100207.44;;;25.88;44.49
74573;BME280;63071;51.526;-0.134;2022-09-09T10:34:39;100218.00;;;26.02;44.67
74573;BME280;63071;51.526;-0.134;2022-09-09T10:40:31;100224.84;;;26.07;44.51
74573;BME280;63071;51.526;-0.134;2022-09-09T10:43:39;100227.13;;;26.08;44.15
74573;BME280;63071;51.526;-0.134;2022-09-09T10:46:25;100219.94;;;26.02;44.57
74573;BME280;63071;51.526;-0.134;2022-09-09T10:52:14;100222.13;;;26.10;44.60
74573;BME280;63071;51.526;-0.134;2022-09-09T10:55:09;100231.56;;;26.18;44.12
74573;BME280;63071;51.526;-0.134;2022-09-09T10:57:46;100224.31;;;26.15;44.17
74573;BME280;63071;51.526;-0.134;2022-09-09T11:00:25;100235.34;;;26.21;45.01
74573;BME280;63071;51.526;-0.134;2022-09-09T11:03:01;100226.53;;;26.24;44.21
74573;BME280;63071;51.526;-0.134;2022-09-09T11:05:46;100231.50;;;26.26;44.31
74573;BME280;63071;51.526;-0.134;2022-09-09T11:08:20;100231.41;;;26.29;45.19
74573;BME280;63071;51.526;-0.134;2022-09-09T11:10:56;100231.41;;;26.29;44.98
74573;BME280;63071;51.526;-0.134;2022-09-09T11:13:42;100235.53;;;26.37;44.63
74573;BME280;63071;51.526;-0.134;2022-09-09T11:16:24;100237.00;;;26.42;44.93
74573;BME280;63071;51.526;-0.134;2022-09-09T11:19:04;100238.13;;;26.45;45.01
74573;BME280;63071;51.526;-0.134;2022-09-09T11:21:45;100233.84;;;26.47;45.01
74573;BME280;63071;51.526;-0.134;2022-09-09T11:24:27;100235.75;;;26.50;44.33
74573;BME280;63071;51.526;-0.134;2022-09-09T11:27:07;100236.13;;;26.49;44.72
74573;BME280;63071;51.526;-0.134;2022-09-09T11:40:41;100239.03;;;26.62;44.74
74573;BME280;63071;51.526;-0.134;2022-09-09T11:43:24;100246.22;;;26.68;43.78
74573;BME280;63071;51.526;-0.134;2022-09-09T11:45:58;100240.75;;;26.75;44.52
74573;BME280;63071;51.526;-0.134;2022-09-09T11:51:27;100247.16;;;26.82;43.60
74573;BME280;63071;51.526;-0.134;2022-09-09T11:56:44;100246.81;;;26.80;43.66
74573;BME280;63071;51.526;-0.134;2022-09-09T11:59:21;100246.38;;;26.85;44.25
74573;BME280;63071;51.526;-0.134;2022-09-09T12:05:17;100245.19;;;26.86;43.19
74573;BME280;63071;51.526;-0.134;2022-09-09T12:07:57;100255.56;;;26.84;43.49
74573;BME280;63071;51.526;-0.134;2022-09-09T12:10:33;100253.72;;;26.81;43.95
74573;BME280;63071;51.526;-0.134;2022-09-09T12:13:28;100254.06;;;26.83;43.41
74573;BME280;63071;51.526;-0.134;2022-09-09T12:15:58;100247.13;;;26.85;42.95
74573;BME280;63071;51.526;-0.134;2022-09-09T12:23:52;100256.22;;;26.91;42.93
74573;BME280;63071;51.526;-0.134;2022-09-09T12:26:40;100258.16;;;26.91;43.43
74573;BME280;63071;51.526;-0.134;2022-09-09T12:29:21;100256.16;;;26.95;43.44
74573;BME280;63071;51.526;-0.134;2022-09-09T12:32:08;100256.88;;;26.99;42.97
74573;BME280;63071;51.526;-0.134;2022-09-09T12:34:47;100255.34;;;26.98;42.64
74573;BME280;63071;51.526;-0.134;2022-09-09T12:39:58;100244.22;;;27.00;43.10
74573;BME280;63071;51.526;-0.134;2022-09-09T12:42:25;100248.75;;;27.03;43.02
74573;BME280;63071;51.526;-0.134;2022-09-09T12:44:52;100255.25;;;27.05;42.74
74573;BME280;63071;51.526;-0.134;2022-09-09T12:47:21;100252.13;;;27.07;43.02
74573;BME280;63071;51.526;-0.134;2022-09-09T12:49:50;100245.25;;;27.06;43.01
74573;BME280;63071;51.526;-0.134;2022-09-09T12:52:32;100255.44;;;27.14;42.14
74573;BME280;63071;51.526;-0.134;2022-09-09T12:55:03;100252.81;;;27.11;42.53
74573;BME280;63071;51.526;-0.134;2022-09-09T12:57:35;100253.91;;;27.17;42.46
74573;BME280;63071;51.526;-0.134;2022-09-09T13:00:17;100250.88;;;27.15;42.62
74573;BME280;63071;51.526;-0.134;2022-09-09T13:03:13;100253.91;;;27.17;42.04
74573;BME280;63071;51.526;-0.134;2022-09-09T13:05:39;100263.78;;;27.24;41.64
74573;BME280;63071;51.526;-0.134;2022-09-09T13:08:09;100264.53;;;27.24;41.87
74573;BME280;63071;51.526;-0.134;2022-09-09T13:10:47;100259.19;;;27.21;41.88
74573;BME280;63071;51.526;-0.134;2022-09-09T13:13:19;100250.38;;;27.20;41.92
74573;BME280;63071;51.526;-0.134;2022-09-09T13:15:57;100246.94;;;27.23;41.50
74573;BME280;63071;51.526;-0.134;2022-09-09T13:18:28;100255.72;;;27.24;41.48
74573;BME280;63071;51.526;-0.134;2022-09-09T13:20:56;100257.66;;;27.23;42.03
74573;BME280;63071;51.526;-0.134;2022-09-09T13:23:31;100263.03;;;27.23;41.66
74573;BME280;63071;51.526;-0.134;2022-09-09T13:26:26;100260.34;;;27.23;40.93
74573;BME280;63071;51.526;-0.134;2022-09-09T13:28:52;100264.16;;;27.22;41.46
74573;BME280;63071;51.526;-0.134;2022-09-09T13:31:38;100272.19;;;27.22;41.09
74573;BME280;63071;51.526;-0.134;2022-09-09T13:34:25;100277.53;;;27.26;41.05
74573;BME280;63071;51.526;-0.134;2022-09-09T13:37:22;100271.78;;;27.27;41.53
74573;BME280;63071;51.526;-0.134;2022-09-09T13:39:53;100270.59;;;27.28;40.83
74573;BME280;63071;51.526;-0.134;2022-09-09T13:42:26;100269.78;;;27.31;40.92
74573;BME280;63071;51.526;-0.134;2022-09-09T13:44:54;100267.84;;;27.32;40.88
74573;BME280;63071;51.526;-0.134;2022-09-09T13:47:47;100272.47;;;27.31;40.34
74573;BME280;63071;51.526;-0.134;2022-09-09T13:50:29;100265.97;;;27.29;41.00
74573;BME280;63071;51.526;-0.134;2022-09-09T13:52:57;100277.47;;;27.29;40.91
74573;BME280;63071;51.526;-0.134;2022-09-09T13:55:27;100275.56;;;27.30;40.95
74573;BME280;63071;51.526;-0.134;2022-09-09T13:57:55;100265.22;;;27.28;41.19
74573;BME280;63071;51.526;-0.134;2022-09-09T14:00:22;100269.50;;;27.26;41.07
74573;BME280;63071;51.526;-0.134;2022-09-09T14:02:49;100272.91;;;27.26;41.33
74573;BME280;63071;51.526;-0.134;2022-09-09T14:05:16;100278.69;;;27.25;40.60
74573;BME280;63071;51.526;-0.134;2022-09-09T14:07:44;100277.56;;;27.22;40.87
74573;BME280;63071;51.526;-0.134;2022-09-09T14:10:10;100274.50;;;27.24;40.79
74573;BME280;63071;51.526;-0.134;2022-09-09T14:12:36;100277.56;;;27.22;41.04
74573;BME280;63071;51.526;-0.134;2022-09-09T14:15:04;100284.47;;;27.23;41.09
74573;BME280;63071;51.526;-0.134;2022-09-09T14:17:30;100283.31;;;27.24;40.99
74573;BME280;63071;51.526;-0.134;2022-09-09T14:19:57;100285.19;;;27.27;41.31
74573;BME280;63071;51.526;-0.134;2022-09-09T14:22:23;100292.81;;;27.29;40.81
74573;BME280;63071;51.526;-0.134;2022-09-09T14:24:49;100286.63;;;27.32;40.41
74573;BME280;63071;51.526;-0.134;2022-09-09T14:27:16;100286.28;;;27.30;41.11
74573;BME280;63071;51.526;-0.134;2022-09-09T14:29:41;100278.22;;;27.30;40.74
74573;BME280;63071;51.526;-0.134;2022-09-09T14:32:08;100288.56;;;27.31;40.53
74573;BME280;63071;51.526;-0.134;2022-09-09T14:34:34;100286.56;;;27.35;40.79
74573;BME280;63071;51.526;-0.134;2022-09-09T14:37:00;100276.19;;;27.37;41.41
74573;BME280;63071;51.526;-0.134;2022-09-09T14:39:26;100287.69;;;27.38;40.67
74573;BME280;63071;51.526;-0.134;2022-09-09T14:41:51;100281.56;;;27.37;40.62
74573;BME280;63071;51.526;-0.134;2022-09-09T14:44:17;100293.00;;;27.42;41.03
74573;BME280;63071;51.526;-0.134;2022-09-09T14:46:44;100291.88;;;27.39;40.73
74573;BME280;63071;51.526;-0.134;2022-09-09T14:49:09;100290.72;;;27.40;40.50
74573;BME280;63071;51.526;-0.134;2022-09-09T14:51:38;100292.56;;;27.43;41.38
74573;BME280;63071;51.526;-0.134;2022-09-09T14:54:04;100290.00;;;27.36;40.44